createdAt,value
2017-06-12T00:01:03.748Z,0
2017-06-12T00:02:14.028Z,0
2017-06-12T00:03:24.303Z,0
2017-06-12T00:04:34.593Z,0
2017-06-12T00:05:44.567Z,0
2017-06-12T00:06:54.847Z,0
2017-06-12T00:08:05.132Z,0
2017-06-12T00:09:15.421Z,0
2017-06-12T00:10:25.393Z,0
2017-06-12T00:11:35.664Z,0
2017-06-12T00:12:45.627Z,0
2017-06-12T00:13:55.596Z,0
2017-06-12T00:15:05.871Z,0
2017-06-12T00:16:15.526Z,0
2017-06-12T00:17:25.805Z,0
2017-06-12T00:18:36.079Z,0
2017-06-12T00:19:46.350Z,0
2017-06-12T00:20:56.334Z,0
2017-06-12T00:22:06.303Z,0
2017-06-12T00:23:16.584Z,0
2017-06-12T00:24:26.864Z,0
2017-06-12T00:25:37.149Z,0
2017-06-12T00:26:47.429Z,0
2017-06-12T00:27:57.389Z,0
2017-06-12T00:29:07.069Z,0
2017-06-12T00:30:17.360Z,0
2017-06-12T00:31:27.643Z,0
2017-06-12T00:32:37.619Z,0
2017-06-12T00:33:47.277Z,0
2017-06-12T00:34:57.562Z,0
2017-06-12T00:36:07.841Z,0
2017-06-12T00:37:18.123Z,0
2017-06-12T00:38:28.402Z,0
2017-06-12T00:39:38.376Z,0
2017-06-12T00:40:48.656Z,0
2017-06-12T00:41:58.940Z,0
2017-06-12T00:43:09.219Z,0
2017-06-12T00:44:19.502Z,0
2017-06-12T00:45:29.787Z,0
2017-06-12T00:46:39.757Z,0
2017-06-12T00:47:50.031Z,0
2017-06-12T00:49:00.302Z,0
2017-06-12T00:50:10.277Z,0
2017-06-12T00:51:20.244Z,0
2017-06-12T00:52:30.524Z,0
2017-06-12T00:53:40.491Z,0
2017-06-12T00:54:50.773Z,0
2017-06-12T00:56:01.053Z,0
2017-06-12T00:57:11.341Z,0
2017-06-12T00:58:21.617Z,0
2017-06-12T00:59:31.580Z,0
2017-06-12T01:00:41.867Z,0
2017-06-12T01:01:52.153Z,0
2017-06-12T01:03:02.426Z,0
2017-06-12T01:04:12.707Z,0
2017-06-12T01:05:23.009Z,0
2017-06-12T01:06:32.976Z,0
2017-06-12T01:07:43.257Z,0
2017-06-12T01:08:53.557Z,0
2017-06-12T01:10:03.535Z,0
2017-06-12T01:11:13.826Z,0
2017-06-12T01:12:24.123Z,0
2017-06-12T01:13:34.097Z,0
2017-06-12T01:14:44.378Z,0
2017-06-12T01:15:54.352Z,0
2017-06-12T01:17:04.627Z,0
2017-06-12T01:18:14.909Z,0
2017-06-12T01:19:24.883Z,0
2017-06-12T01:20:35.174Z,0
2017-06-12T01:21:45.452Z,0
2017-06-12T01:22:55.730Z,0
2017-06-12T01:24:05.693Z,0
2017-06-12T01:25:15.349Z,0
2017-06-12T01:26:25.026Z,0
2017-06-12T01:27:35.009Z,0
2017-06-12T01:28:45.283Z,0
2017-06-12T01:29:55.566Z,0
2017-06-12T01:31:05.533Z,0
2017-06-12T01:32:15.811Z,0
2017-06-12T01:33:25.795Z,0
2017-06-12T01:34:35.757Z,0
2017-06-12T01:35:46.038Z,0
2017-06-12T01:36:56.005Z,0
2017-06-12T01:38:06.295Z,0
2017-06-12T01:39:16.266Z,0
2017-06-12T01:40:26.231Z,0
2017-06-12T01:41:36.511Z,0
2017-06-12T01:42:46.794Z,0
2017-06-12T01:43:57.068Z,0
2017-06-12T01:45:07.038Z,0
2017-06-12T01:46:17.317Z,0
2017-06-12T01:47:27.589Z,0
2017-06-12T01:48:37.571Z,0
2017-06-12T01:49:47.847Z,0
2017-06-12T01:50:58.128Z,0
2017-06-12T01:52:08.403Z,0
2017-06-12T01:53:18.376Z,0
2017-06-12T01:54:28.347Z,0
2017-06-12T01:55:38.614Z,0
2017-06-12T01:56:48.268Z,0
2017-06-12T01:57:58.560Z,0
2017-06-12T01:59:08.846Z,0
2017-06-12T02:00:19.136Z,0
2017-06-12T02:01:29.413Z,0
2017-06-12T02:02:39.697Z,0
2017-06-12T02:03:49.979Z,0
2017-06-12T02:05:00.257Z,0
2017-06-12T02:06:09.599Z,0
2017-06-12T02:07:19.879Z,0
2017-06-12T02:08:30.185Z,0
2017-06-12T02:09:40.467Z,0
2017-06-12T02:10:50.749Z,0
2017-06-12T02:12:00.717Z,0
2017-06-12T02:13:10.990Z,0
2017-06-12T02:14:20.959Z,0
2017-06-12T02:15:31.242Z,0
2017-06-12T02:16:41.527Z,0
2017-06-12T02:17:51.500Z,0
2017-06-12T02:19:01.789Z,0
2017-06-12T02:20:11.755Z,0
2017-06-12T02:21:22.032Z,0
2017-06-12T02:22:32.321Z,0
2017-06-12T02:23:42.614Z,0
2017-06-12T02:24:52.900Z,0
2017-06-12T02:26:03.186Z,0
2017-06-12T02:27:13.469Z,0
2017-06-12T02:28:23.738Z,0
2017-06-12T02:29:34.012Z,0
2017-06-12T02:30:43.683Z,0
2017-06-12T02:31:54.010Z,0
2017-06-12T02:33:03.991Z,0
2017-06-12T02:34:13.966Z,0
2017-06-12T02:35:23.931Z,0
2017-06-12T02:36:33.893Z,0
2017-06-12T02:37:43.865Z,0
2017-06-12T02:38:53.845Z,0
2017-06-12T02:40:03.510Z,0
2017-06-12T02:41:13.786Z,0
2017-06-12T02:42:24.064Z,0
2017-06-12T02:43:34.030Z,0
2017-06-12T02:44:44.316Z,0
2017-06-12T02:45:54.595Z,0
2017-06-12T02:47:04.869Z,0
2017-06-12T02:48:14.522Z,0
2017-06-12T02:49:24.799Z,0
2017-06-12T02:50:34.772Z,0
2017-06-12T02:51:45.060Z,0
2017-06-12T02:52:55.336Z,0
2017-06-12T02:54:05.611Z,0
2017-06-12T02:55:15.895Z,0
2017-06-12T02:56:26.170Z,0
2017-06-12T02:57:36.443Z,0
2017-06-12T02:58:46.731Z,0
2017-06-12T02:59:57.012Z,0
2017-06-12T03:01:07.299Z,0
2017-06-12T03:02:17.577Z,0
2017-06-12T03:03:27.541Z,0
2017-06-12T03:04:37.517Z,0
2017-06-12T03:05:47.809Z,0
2017-06-12T03:06:58.090Z,0
2017-06-12T03:08:08.073Z,0
2017-06-12T03:09:18.363Z,0
2017-06-12T03:10:28.333Z,0
2017-06-12T03:11:38.616Z,0
2017-06-12T03:12:48.899Z,0
2017-06-12T03:13:58.243Z,0
2017-06-12T03:15:08.204Z,0
2017-06-12T03:16:18.487Z,0
2017-06-12T03:17:28.761Z,0
2017-06-12T03:18:39.045Z,0
2017-06-12T03:19:49.015Z,0
2017-06-12T03:20:58.984Z,0
2017-06-12T03:22:09.269Z,0
2017-06-12T03:23:19.543Z,0
2017-06-12T03:24:29.866Z,0
2017-06-12T03:25:40.154Z,0
2017-06-12T03:26:50.454Z,0
2017-06-12T03:28:00.734Z,0
2017-06-12T03:29:10.707Z,0
2017-06-12T03:30:20.987Z,0
2017-06-12T03:31:31.264Z,0
2017-06-12T03:32:41.573Z,0
2017-06-12T03:33:51.863Z,0
2017-06-12T03:35:02.137Z,0
2017-06-12T03:36:12.106Z,0
2017-06-12T03:37:22.080Z,0
2017-06-12T03:38:32.350Z,0
2017-06-12T03:39:42.628Z,0
2017-06-12T03:40:52.916Z,0
2017-06-12T03:42:03.198Z,0
2017-06-12T03:43:13.517Z,0
2017-06-12T03:44:23.799Z,0
2017-06-12T03:45:34.082Z,0
2017-06-12T03:46:44.048Z,0
2017-06-12T03:47:54.336Z,0
2017-06-12T03:49:04.614Z,0
2017-06-12T03:50:14.584Z,0
2017-06-12T03:51:24.860Z,0
2017-06-12T03:52:35.141Z,0
2017-06-12T03:53:45.104Z,0
2017-06-12T03:54:55.062Z,0
2017-06-12T03:56:05.338Z,0
2017-06-12T03:57:15.610Z,0
2017-06-12T03:58:25.889Z,0
2017-06-12T03:59:36.169Z,0
2017-06-12T04:00:45.824Z,15
2017-06-12T04:01:56.100Z,25
2017-06-12T04:03:06.378Z,25
2017-06-12T04:04:16.665Z,25
2017-06-12T04:05:26.627Z,25
2017-06-12T04:06:36.913Z,30
2017-06-12T04:07:47.199Z,35
2017-06-12T04:08:57.472Z,40
2017-06-12T04:10:07.459Z,40
2017-06-12T04:11:17.733Z,35
2017-06-12T04:12:27.700Z,40
2017-06-12T04:13:37.973Z,50
2017-06-12T04:14:48.250Z,50
2017-06-12T04:15:58.540Z,45
2017-06-12T04:17:08.823Z,45
2017-06-12T04:18:18.786Z,75
2017-06-12T04:19:28.760Z,65
2017-06-12T04:20:39.037Z,80
2017-06-12T04:21:48.698Z,65
2017-06-12T04:22:58.673Z,40
2017-06-12T04:24:08.961Z,35
2017-06-12T04:25:19.239Z,30
2017-06-12T04:26:29.520Z,30
2017-06-12T04:27:39.803Z,35
2017-06-12T04:28:50.077Z,35
2017-06-12T04:30:00.050Z,20
2017-06-12T04:31:10.331Z,25
2017-06-12T04:32:20.616Z,25
2017-06-12T04:33:30.587Z,15
2017-06-12T04:34:40.866Z,15
2017-06-12T04:35:51.142Z,15
2017-06-12T04:37:00.809Z,15
2017-06-12T04:38:10.515Z,15
2017-06-12T04:39:20.489Z,20
2017-06-12T04:40:30.456Z,20
2017-06-12T04:41:40.416Z,15
2017-06-12T04:42:50.391Z,20
2017-06-12T04:44:00.666Z,25
2017-06-12T04:45:10.959Z,20
2017-06-12T04:46:21.238Z,15
2017-06-12T04:47:31.241Z,25
2017-06-12T04:48:41.514Z,20
2017-06-12T04:49:51.810Z,25
2017-06-12T04:51:02.092Z,25
2017-06-12T04:52:12.373Z,25
2017-06-12T04:53:22.646Z,25
2017-06-12T04:54:32.621Z,35
2017-06-12T04:55:42.909Z,40
2017-06-12T04:56:53.183Z,40
2017-06-12T04:58:03.694Z,40
2017-06-12T04:59:13.998Z,50
2017-06-12T05:00:24.284Z,60
2017-06-12T05:01:34.559Z,60
2017-06-12T05:02:44.853Z,70
2017-06-12T05:03:54.824Z,70
2017-06-12T05:05:05.108Z,60
2017-06-12T05:06:15.389Z,60
2017-06-12T05:07:25.368Z,50
2017-06-12T05:08:35.643Z,45
2017-06-12T05:09:45.915Z,45
2017-06-12T05:10:55.885Z,40
2017-06-12T05:12:06.165Z,35
2017-06-12T05:13:15.859Z,35
2017-06-12T05:14:26.296Z,40
2017-06-12T05:15:36.588Z,50
2017-06-12T05:16:46.875Z,55
2017-06-12T05:17:57.154Z,55
2017-06-12T05:19:07.447Z,45
2017-06-12T05:20:17.724Z,55
2017-06-12T05:21:27.706Z,60
2017-06-12T05:22:37.993Z,90
2017-06-12T05:23:48.292Z,95
2017-06-12T05:24:58.568Z,95
2017-06-12T05:26:08.536Z,100
2017-06-12T05:27:18.511Z,90
2017-06-12T05:28:28.797Z,95
2017-06-12T05:29:39.078Z,70
2017-06-12T05:30:49.368Z,60
2017-06-12T05:31:59.650Z,60
2017-06-12T05:33:09.624Z,65
2017-06-12T05:34:19.903Z,55
2017-06-12T05:35:30.196Z,80
2017-06-12T05:36:40.525Z,95
2017-06-12T05:37:50.557Z,100
2017-06-12T05:39:00.853Z,90
2017-06-12T05:40:11.175Z,100
2017-06-12T05:41:21.551Z,100
2017-06-12T05:42:31.248Z,110
2017-06-12T05:43:41.545Z,80
2017-06-12T05:44:51.822Z,90
2017-06-12T05:46:02.108Z,70
2017-06-12T05:47:12.134Z,65
2017-06-12T05:48:22.442Z,60
2017-06-12T05:49:32.116Z,75
2017-06-12T05:50:42.108Z,95
2017-06-12T05:51:52.096Z,105
2017-06-12T05:53:02.408Z,100
2017-06-12T05:54:12.791Z,85
2017-06-12T05:55:23.105Z,90
2017-06-12T05:56:33.134Z,105
2017-06-12T05:57:43.440Z,110
2017-06-12T05:58:53.095Z,105
2017-06-12T06:00:03.380Z,90
2017-06-12T06:01:13.699Z,85
2017-06-12T06:02:24.038Z,60
2017-06-12T06:03:34.394Z,50
2017-06-12T06:04:44.117Z,55
2017-06-12T06:05:54.418Z,55
2017-06-12T06:07:04.768Z,60
2017-06-12T06:08:15.188Z,60
2017-06-12T06:09:25.550Z,50
2017-06-12T06:10:35.876Z,45
2017-06-12T06:11:45.925Z,60
2017-06-12T06:12:56.221Z,70
2017-06-12T06:14:06.560Z,80
2017-06-12T06:15:16.542Z,85
2017-06-12T06:16:26.848Z,115
2017-06-12T06:17:37.222Z,115
2017-06-12T06:18:47.249Z,120
2017-06-12T06:19:57.569Z,135
2017-06-12T06:21:07.877Z,130
2017-06-12T06:22:18.185Z,120
2017-06-12T06:23:28.188Z,90
2017-06-12T06:24:38.172Z,100
2017-06-12T06:25:48.171Z,100
2017-06-12T06:26:58.500Z,90
2017-06-12T06:28:08.489Z,85
2017-06-12T06:29:18.790Z,90
2017-06-12T06:30:29.105Z,105
2017-06-12T06:31:39.430Z,120
2017-06-12T06:32:49.420Z,105
2017-06-12T06:33:59.134Z,125
2017-06-12T06:35:09.181Z,130
2017-06-12T06:36:19.559Z,135
2017-06-12T06:37:29.944Z,130
2017-06-12T06:38:39.966Z,135
2017-06-12T06:39:50.297Z,135
2017-06-12T06:41:00.645Z,135
2017-06-12T06:42:11.017Z,130
2017-06-12T06:43:20.757Z,160
2017-06-12T06:44:31.112Z,115
2017-06-12T06:45:41.412Z,120
2017-06-12T06:46:51.421Z,120
2017-06-12T06:48:01.752Z,135
2017-06-12T06:49:12.040Z,130
2017-06-12T06:50:22.330Z,155
2017-06-12T06:51:32.650Z,140
2017-06-12T06:52:42.499Z,145
2017-06-12T06:53:52.859Z,150
2017-06-12T06:55:03.175Z,140
2017-06-12T06:56:13.158Z,135
2017-06-12T06:57:23.561Z,145
2017-06-12T06:58:33.934Z,180
2017-06-12T06:59:44.235Z,155
2017-06-12T07:00:53.929Z,160
2017-06-12T07:02:03.920Z,175
2017-06-12T07:03:14.249Z,185
2017-06-12T07:04:24.235Z,165
2017-06-12T07:05:34.546Z,155
2017-06-12T07:06:44.892Z,180
2017-06-12T07:07:55.205Z,190
2017-06-12T07:09:05.544Z,175
2017-06-12T07:10:15.222Z,110
2017-06-12T07:11:25.452Z,120
2017-06-12T07:12:35.748Z,100
2017-06-12T07:13:46.030Z,160
2017-06-12T07:14:56.432Z,180
2017-06-12T07:16:06.539Z,165
2017-06-12T07:17:17.080Z,160
2017-06-12T07:18:26.782Z,180
2017-06-12T07:19:37.125Z,205
2017-06-12T07:20:47.463Z,195
2017-06-12T07:21:57.465Z,165
2017-06-12T07:23:07.766Z,160
2017-06-12T07:24:18.072Z,140
2017-06-12T07:25:28.390Z,115
2017-06-12T07:26:38.069Z,100
2017-06-12T07:27:48.065Z,110
2017-06-12T07:28:58.429Z,105
2017-06-12T07:30:08.454Z,115
2017-06-12T07:31:18.448Z,135
2017-06-12T07:32:28.748Z,170
2017-06-12T07:33:39.091Z,160
2017-06-12T07:34:49.376Z,125
2017-06-12T07:35:59.353Z,125
2017-06-12T07:37:09.338Z,130
2017-06-12T07:38:19.327Z,135
2017-06-12T07:39:29.610Z,125
2017-06-12T07:40:39.938Z,120
2017-06-12T07:41:50.234Z,125
2017-06-12T07:43:00.527Z,135
2017-06-12T07:44:10.836Z,110
2017-06-12T07:45:20.825Z,115
2017-06-12T07:46:31.135Z,100
2017-06-12T07:47:41.413Z,125
2017-06-12T07:48:51.705Z,95
2017-06-12T07:50:02.011Z,110
2017-06-12T07:51:11.985Z,145
2017-06-12T07:52:21.959Z,150
2017-06-12T07:53:32.249Z,130
2017-06-12T07:54:42.554Z,115
2017-06-12T07:55:52.844Z,110
2017-06-12T07:57:03.132Z,110
2017-06-12T07:58:13.430Z,120
2017-06-12T07:59:23.738Z,125
2017-06-12T08:00:34.034Z,95
2017-06-12T08:01:44.377Z,130
2017-06-12T08:02:54.383Z,120
2017-06-12T08:04:04.669Z,135
2017-06-12T08:05:14.975Z,110
2017-06-12T08:06:25.284Z,120
2017-06-12T08:07:35.846Z,140
2017-06-12T08:08:46.160Z,130
2017-06-12T08:09:56.136Z,130
2017-06-12T08:11:06.416Z,125
2017-06-12T08:12:16.386Z,125
2017-06-12T08:13:26.671Z,140
2017-06-12T08:14:36.331Z,140
2017-06-12T08:15:46.302Z,150
2017-06-12T08:16:56.279Z,120
2017-06-12T08:18:06.307Z,110
2017-06-12T08:19:16.598Z,115
2017-06-12T08:20:26.906Z,145
2017-06-12T08:21:37.208Z,145
2017-06-12T08:22:47.498Z,150
2017-06-12T08:23:57.540Z,150
2017-06-12T08:25:07.826Z,135
2017-06-12T08:26:18.360Z,125
2017-06-12T08:27:28.642Z,120
2017-06-12T08:28:38.327Z,125
2017-06-12T08:29:48.655Z,125
2017-06-12T08:30:58.972Z,135
2017-06-12T08:32:08.325Z,115
2017-06-12T08:33:18.329Z,90
2017-06-12T08:34:28.323Z,105
2017-06-12T08:35:38.615Z,130
2017-06-12T08:36:48.907Z,115
2017-06-12T08:37:59.216Z,120
2017-06-12T08:39:09.204Z,140
2017-06-12T08:40:19.510Z,110
2017-06-12T08:41:29.825Z,95
2017-06-12T08:42:40.122Z,95
2017-06-12T08:43:50.118Z,90
2017-06-12T08:45:00.101Z,105
2017-06-12T08:46:10.117Z,95
2017-06-12T08:47:20.410Z,100
2017-06-12T08:48:30.707Z,100
2017-06-12T08:49:40.702Z,95
2017-06-12T08:50:51.018Z,120
2017-06-12T08:52:00.998Z,115
2017-06-12T08:53:11.011Z,105
2017-06-12T08:54:21.336Z,95
2017-06-12T08:55:31.652Z,90
2017-06-12T08:56:41.962Z,95
2017-06-12T08:57:52.274Z,125
2017-06-12T08:59:02.268Z,125
2017-06-12T09:00:12.260Z,155
2017-06-12T09:01:22.239Z,125
2017-06-12T09:02:32.267Z,110
2017-06-12T09:03:42.256Z,125
2017-06-12T09:04:52.268Z,130
2017-06-12T09:06:02.601Z,115
2017-06-12T09:07:12.904Z,110
2017-06-12T09:08:22.933Z,125
2017-06-12T09:09:32.624Z,120
2017-06-12T09:10:42.953Z,125
2017-06-12T09:11:53.280Z,110
2017-06-12T09:13:03.642Z,100
2017-06-12T09:14:13.936Z,125
2017-06-12T09:15:23.932Z,120
2017-06-12T09:16:34.216Z,115
2017-06-12T09:17:44.224Z,120
2017-06-12T09:18:54.534Z,120
2017-06-12T09:20:05.107Z,120
2017-06-12T09:21:15.399Z,120
2017-06-12T09:22:25.742Z,120
2017-06-12T09:23:35.759Z,125
2017-06-12T09:24:45.455Z,125
2017-06-12T09:25:55.737Z,100
2017-06-12T09:27:06.067Z,120
2017-06-12T09:28:16.068Z,125
2017-06-12T09:29:26.358Z,130
2017-06-12T09:30:36.648Z,135
2017-06-12T09:31:46.949Z,115
2017-06-12T09:32:57.237Z,110
2017-06-12T09:34:07.213Z,135
2017-06-12T09:35:17.507Z,135
2017-06-12T09:36:27.815Z,120
2017-06-12T09:37:38.101Z,100
2017-06-12T09:38:47.780Z,105
2017-06-12T09:39:58.065Z,105
2017-06-12T09:41:08.057Z,95
2017-06-12T09:42:18.376Z,110
2017-06-12T09:43:28.671Z,115
2017-06-12T09:44:38.978Z,115
2017-06-12T09:45:49.056Z,120
2017-06-12T09:46:59.039Z,130
2017-06-12T09:48:09.356Z,125
2017-06-12T09:49:19.661Z,115
2017-06-12T09:50:29.944Z,100
2017-06-12T09:51:39.924Z,90
2017-06-12T09:52:50.245Z,90
2017-06-12T09:54:00.255Z,85
2017-06-12T09:55:10.539Z,90
2017-06-12T09:56:20.202Z,85
2017-06-12T09:57:30.210Z,80
2017-06-12T09:58:40.180Z,100
2017-06-12T09:59:50.481Z,95
2017-06-12T10:01:00.783Z,90
2017-06-12T10:02:10.443Z,120
2017-06-12T10:03:20.763Z,140
2017-06-12T10:04:31.056Z,140
2017-06-12T10:05:41.352Z,120
2017-06-12T10:06:51.330Z,140
2017-06-12T10:08:01.303Z,100
2017-06-12T10:09:11.594Z,130
2017-06-12T10:10:21.881Z,155
2017-06-12T10:11:31.855Z,150
2017-06-12T10:12:42.190Z,130
2017-06-12T10:13:52.173Z,125
2017-06-12T10:15:02.162Z,115
2017-06-12T10:16:12.457Z,120
2017-06-12T10:17:22.445Z,150
2017-06-12T10:18:32.748Z,130
2017-06-12T10:19:43.035Z,115
2017-06-12T10:20:53.327Z,130
2017-06-12T10:22:03.615Z,140
2017-06-12T10:23:13.940Z,135
2017-06-12T10:24:23.705Z,130
2017-06-12T10:25:33.713Z,140
2017-06-12T10:26:44.010Z,125
2017-06-12T10:27:54.026Z,125
2017-06-12T10:29:04.030Z,135
2017-06-12T10:30:13.698Z,130
2017-06-12T10:31:23.720Z,130
2017-06-12T10:32:34.017Z,160
2017-06-12T10:33:44.330Z,170
2017-06-12T10:34:54.614Z,160
2017-06-12T10:36:04.944Z,130
2017-06-12T10:37:15.233Z,125
2017-06-12T10:38:25.532Z,145
2017-06-12T10:39:35.500Z,145
2017-06-12T10:40:45.781Z,140
2017-06-12T10:41:56.100Z,140
2017-06-12T10:43:06.415Z,145
2017-06-12T10:44:16.711Z,155
2017-06-12T10:45:26.996Z,170
2017-06-12T10:46:37.285Z,175
2017-06-12T10:47:47.576Z,135
2017-06-12T10:48:57.871Z,85
2017-06-12T10:50:08.158Z,95
2017-06-12T10:51:18.129Z,115
2017-06-12T10:52:28.418Z,105
2017-06-12T10:53:38.701Z,100
2017-06-12T10:54:48.668Z,105
2017-06-12T10:55:58.652Z,105
2017-06-12T10:57:08.976Z,110
2017-06-12T10:58:18.953Z,125
2017-06-12T10:59:29.248Z,150
2017-06-12T11:00:39.539Z,170
2017-06-12T11:01:49.521Z,155
2017-06-12T11:02:59.512Z,100
2017-06-12T11:04:09.481Z,70
2017-06-12T11:05:19.766Z,65
2017-06-12T11:06:30.065Z,75
2017-06-12T11:07:40.340Z,90
2017-06-12T11:08:50.622Z,120
2017-06-12T11:10:00.910Z,135
2017-06-12T11:11:10.896Z,155
2017-06-12T11:12:21.180Z,175
2017-06-12T11:13:31.469Z,180
2017-06-12T11:14:41.996Z,190
2017-06-12T11:15:52.295Z,190
2017-06-12T11:17:02.625Z,190
2017-06-12T11:18:12.618Z,190
2017-06-12T11:19:22.603Z,185
2017-06-12T11:20:32.585Z,175
2017-06-12T11:21:42.566Z,185
2017-06-12T11:22:52.853Z,190
2017-06-12T11:24:02.864Z,195
2017-06-12T11:25:13.176Z,195
2017-06-12T11:26:23.467Z,195
2017-06-12T11:27:33.447Z,185
2017-06-12T11:28:43.455Z,175
2017-06-12T11:29:53.747Z,150
2017-06-12T11:31:04.038Z,115
2017-06-12T11:32:14.007Z,100
2017-06-12T11:33:24.294Z,95
2017-06-12T11:34:34.588Z,105
2017-06-12T11:35:44.879Z,125
2017-06-12T11:36:55.167Z,135
2017-06-12T11:38:05.154Z,150
2017-06-12T11:39:15.428Z,160
2017-06-12T11:40:25.723Z,175
2017-06-12T11:41:35.707Z,185
2017-06-12T11:42:45.721Z,195
2017-06-12T11:43:55.386Z,185
2017-06-12T11:45:05.684Z,160
2017-06-12T11:46:15.965Z,165
2017-06-12T11:47:26.251Z,165
2017-06-12T11:48:36.550Z,155
2017-06-12T11:49:46.834Z,135
2017-06-12T11:50:56.821Z,130
2017-06-12T11:52:06.479Z,125
2017-06-12T11:53:16.767Z,105
2017-06-12T11:54:26.739Z,95
2017-06-12T11:55:37.058Z,90
2017-06-12T11:56:46.721Z,100
2017-06-12T11:57:56.997Z,105
2017-06-12T11:59:06.654Z,125
2017-06-12T12:00:16.945Z,150
2017-06-12T12:01:27.236Z,155
2017-06-12T12:02:36.893Z,150
2017-06-12T12:03:47.181Z,170
2017-06-12T12:04:56.848Z,170
2017-06-12T12:06:07.133Z,170
2017-06-12T12:07:17.424Z,160
2017-06-12T12:08:27.713Z,180
2017-06-12T12:09:37.999Z,175
2017-06-12T12:10:48.277Z,175
2017-06-12T12:11:58.555Z,185
2017-06-12T12:13:08.523Z,190
2017-06-12T12:14:18.495Z,190
2017-06-12T12:15:28.779Z,195
2017-06-12T12:16:39.072Z,185
2017-06-12T12:17:49.397Z,125
2017-06-12T12:18:59.673Z,95
2017-06-12T12:20:09.966Z,90
2017-06-12T12:21:19.944Z,90
2017-06-12T12:22:29.916Z,95
2017-06-12T12:23:39.572Z,95
2017-06-12T12:24:49.563Z,100
2017-06-12T12:25:59.852Z,90
2017-06-12T12:27:10.145Z,80
2017-06-12T12:28:20.424Z,100
2017-06-12T12:29:30.701Z,140
2017-06-12T12:30:40.990Z,155
2017-06-12T12:31:51.271Z,140
2017-06-12T12:33:01.250Z,145
2017-06-12T12:34:11.229Z,135
2017-06-12T12:35:21.519Z,135
2017-06-12T12:36:31.510Z,110
2017-06-12T12:37:41.798Z,105
2017-06-12T12:38:51.824Z,105
2017-06-12T12:40:02.107Z,110
2017-06-12T12:41:12.395Z,125
2017-06-12T12:42:22.678Z,150
2017-06-12T12:43:32.662Z,175
2017-06-12T12:44:42.943Z,160
2017-06-12T12:45:53.229Z,110
2017-06-12T12:47:03.199Z,90
2017-06-12T12:48:13.490Z,75
2017-06-12T12:49:23.768Z,75
2017-06-12T12:50:34.077Z,80
2017-06-12T12:51:44.360Z,85
2017-06-12T12:52:54.655Z,95
2017-06-12T12:54:04.632Z,105
2017-06-12T12:55:14.928Z,110
2017-06-12T12:56:25.227Z,120
2017-06-12T12:57:35.513Z,115
2017-06-12T12:58:45.809Z,100
2017-06-12T12:59:55.589Z,105
2017-06-12T13:01:05.249Z,100
2017-06-12T13:02:15.547Z,90
2017-06-12T13:03:25.845Z,105
2017-06-12T13:04:35.818Z,115
2017-06-12T13:05:46.137Z,115
2017-06-12T13:06:56.441Z,105
2017-06-12T13:08:06.744Z,100
2017-06-12T13:09:16.714Z,90
2017-06-12T13:10:27.002Z,85
2017-06-12T13:11:37.289Z,95
2017-06-12T13:12:47.588Z,145
2017-06-12T13:13:57.564Z,120
2017-06-12T13:15:07.859Z,100
2017-06-12T13:16:18.176Z,110
2017-06-12T13:17:28.468Z,105
2017-06-12T13:18:38.769Z,115
2017-06-12T13:19:49.047Z,120
2017-06-12T13:20:58.732Z,100
2017-06-12T13:22:09.095Z,100
2017-06-12T13:23:19.381Z,120
2017-06-12T13:24:29.662Z,135
2017-06-12T13:25:39.960Z,140
2017-06-12T13:26:49.939Z,145
2017-06-12T13:27:59.603Z,150
2017-06-12T13:29:09.887Z,155
2017-06-12T13:30:20.167Z,155
2017-06-12T13:31:30.146Z,160
2017-06-12T13:32:40.441Z,150
2017-06-12T13:33:50.427Z,150
2017-06-12T13:35:00.406Z,155
2017-06-12T13:36:10.695Z,145
2017-06-12T13:37:20.914Z,145
2017-06-12T13:38:30.887Z,150
2017-06-12T13:39:41.171Z,135
2017-06-12T13:40:51.460Z,120
2017-06-12T13:42:01.758Z,125
2017-06-12T13:43:12.062Z,125
2017-06-12T13:44:22.347Z,115
2017-06-12T13:45:32.657Z,105
2017-06-12T13:46:42.945Z,105
2017-06-12T13:47:53.244Z,125
2017-06-12T13:49:03.230Z,125
2017-06-12T13:50:13.524Z,115
2017-06-12T13:51:23.503Z,100
2017-06-12T13:52:33.471Z,90
2017-06-12T13:53:43.769Z,85
2017-06-12T13:54:53.740Z,75
2017-06-12T13:56:03.721Z,85
2017-06-12T13:57:14.011Z,80
2017-06-12T13:58:24.317Z,80
2017-06-12T13:59:34.599Z,80
2017-06-12T14:00:44.894Z,90
2017-06-12T14:01:55.178Z,105
2017-06-12T14:03:05.165Z,120
2017-06-12T14:04:15.128Z,105
2017-06-12T14:05:25.442Z,90
2017-06-12T14:06:35.742Z,85
2017-06-12T14:07:46.041Z,80
2017-06-12T14:08:56.006Z,100
2017-06-12T14:10:05.999Z,105
2017-06-12T14:11:16.297Z,125
2017-06-12T14:12:26.585Z,130
2017-06-12T14:13:36.870Z,120
2017-06-12T14:14:47.184Z,105
2017-06-12T14:15:57.470Z,100
2017-06-12T14:17:07.749Z,100
2017-06-12T14:18:17.726Z,80
2017-06-12T14:19:27.700Z,70
2017-06-12T14:20:37.985Z,85
2017-06-12T14:21:47.975Z,110
2017-06-12T14:22:58.277Z,140
2017-06-12T14:24:08.569Z,150
2017-06-12T14:25:18.554Z,110
2017-06-12T14:26:28.848Z,105
2017-06-12T14:27:39.127Z,115
2017-06-12T14:28:49.106Z,125
2017-06-12T14:29:59.086Z,125
2017-06-12T14:31:09.377Z,120
2017-06-12T14:32:19.664Z,115
2017-06-12T14:33:29.639Z,110
2017-06-12T14:34:39.624Z,100
2017-06-12T14:35:49.606Z,100
2017-06-12T14:36:59.891Z,125
2017-06-12T14:38:09.875Z,145
2017-06-12T14:39:19.847Z,130
2017-06-12T14:40:29.820Z,120
2017-06-12T14:41:40.101Z,100
2017-06-12T14:42:50.390Z,80
2017-06-12T14:44:00.688Z,65
2017-06-12T14:45:10.975Z,70
2017-06-12T14:46:20.963Z,85
2017-06-12T14:47:31.260Z,90
2017-06-12T14:48:41.552Z,105
2017-06-12T14:49:51.840Z,120
2017-06-12T14:51:02.122Z,120
2017-06-12T14:52:12.399Z,110
2017-06-12T14:53:22.694Z,110
2017-06-12T14:54:33.006Z,105
2017-06-12T14:55:42.993Z,115
2017-06-12T14:56:52.956Z,110
2017-06-12T14:58:02.929Z,100
2017-06-12T14:59:13.221Z,75
2017-06-12T15:00:23.502Z,75
2017-06-12T15:01:33.794Z,95
2017-06-12T15:02:44.086Z,95
2017-06-12T15:03:54.376Z,100
2017-06-12T15:05:04.352Z,100
2017-06-12T15:06:14.340Z,95
2017-06-12T15:07:24.621Z,90
2017-06-12T15:08:34.590Z,80
2017-06-12T15:09:44.614Z,90
2017-06-12T15:10:54.592Z,85
2017-06-12T15:12:04.869Z,80
2017-06-12T15:13:15.150Z,85
2017-06-12T15:14:25.134Z,90
2017-06-12T15:15:35.474Z,100
2017-06-12T15:16:45.754Z,110
2017-06-12T15:17:55.735Z,110
2017-06-12T15:19:06.027Z,105
2017-06-12T15:20:16.005Z,80
2017-06-12T15:21:25.984Z,65
2017-06-12T15:22:35.955Z,60
2017-06-12T15:23:46.258Z,55
2017-06-12T15:24:56.235Z,55
2017-06-12T15:26:06.534Z,55
2017-06-12T15:27:16.817Z,55
2017-06-12T15:28:27.101Z,50
2017-06-12T15:29:36.773Z,55
2017-06-12T15:30:47.067Z,55
2017-06-12T15:31:57.354Z,55
2017-06-12T15:33:07.327Z,60
2017-06-12T15:34:17.644Z,55
2017-06-12T15:35:27.614Z,60
2017-06-12T15:36:37.912Z,60
2017-06-12T15:37:47.886Z,60
2017-06-12T15:38:57.862Z,65
2017-06-12T15:40:07.836Z,65
2017-06-12T15:41:17.805Z,60
2017-06-12T15:42:28.119Z,60
2017-06-12T15:43:38.088Z,55
2017-06-12T15:44:48.371Z,55
2017-06-12T15:45:58.671Z,55
2017-06-12T15:47:08.971Z,55
2017-06-12T15:48:19.256Z,60
2017-06-12T15:49:29.539Z,60
2017-06-12T15:50:39.846Z,65
2017-06-12T15:51:49.826Z,75
2017-06-12T15:52:59.802Z,85
2017-06-12T15:54:10.085Z,95
2017-06-12T15:55:19.754Z,105
2017-06-12T15:56:30.034Z,95
2017-06-12T15:57:40.324Z,70
2017-06-12T15:58:49.987Z,60
2017-06-12T16:00:00.013Z,55
2017-06-12T16:01:10.036Z,55
2017-06-12T16:02:20.011Z,60
2017-06-12T16:03:30.323Z,60
2017-06-12T16:04:40.305Z,60
2017-06-12T16:05:50.273Z,60
2017-06-12T16:07:00.559Z,65
2017-06-12T16:08:10.231Z,60
2017-06-12T16:09:20.519Z,60
2017-06-12T16:10:30.816Z,55
2017-06-12T16:11:41.116Z,55
2017-06-12T16:12:51.088Z,50
2017-06-12T16:14:01.385Z,50
2017-06-12T16:15:11.065Z,45
2017-06-12T16:16:21.030Z,50
2017-06-12T16:17:31.017Z,60
2017-06-12T16:18:40.981Z,75
2017-06-12T16:19:50.965Z,85
2017-06-12T16:21:01.253Z,85
2017-06-12T16:22:11.537Z,85
2017-06-12T16:23:21.852Z,90
2017-06-12T16:24:31.526Z,95
2017-06-12T16:25:41.512Z,90
2017-06-12T16:26:51.805Z,75
2017-06-12T16:28:01.779Z,60
2017-06-12T16:29:12.077Z,55
2017-06-12T16:30:22.052Z,60
2017-06-12T16:31:32.337Z,55
2017-06-12T16:32:42.011Z,55